Airfield :







YOU CAN JOIN US ON...

 
LOGIN :

Register | Disclaimer

   EN    FR    IT 

 









Legend :    VFR   Marginal VFR   IFR   Intensive IFR   Very Intensive IFR
Visi :
Ceiling :
>= 8 km
>= 3000ft
5 to 8 km
1000 to 3000 ft
1500m to 5 km
500 to 1000 ft
800 to 1500m
200 to 500 ft
< 800m
< 200 ft
Symbols :   Thunderstorms  Fog  Heavy snow  Heavy precipitations  Wind > 20 kt






- Airport Elevation : 472 ft
- IATA code : PZO


SVPR - Manuel Carlos Piar

CURRENT METAR :
  • 250003Z AUTO 07007KT NCD 28/21 Q1017

EXPIRED METARs :
  • 242303Z AUTO 08008KT NCD 30/21 Q1016
  • 242203Z AUTO 07010KT NCD 31/20 Q1015
  • 242103Z AUTO 08012KT NCD 32/20 Q1016
  • 242003Z AUTO 07011KT NCD 32/21 Q1016

TAF TAF SVPR
Valid from the 25 at 00:00 until the 26 at 00:00 UTC


242200Z 2500/2600 08012KT 9999 BKN016 SCT080 TX29/2418Z TN25/2507Z
TEMPO 2502/2504 10003KT 9000 -DZ BKN016 SCT080
SVZM FIR / South America



MET'MAP, your aeronautical weather chart ! - Copyright ORBIFLY December 2007 - Disclaimer

ORBIFLY MET'MAP TEAM :

Programming & Development : Alexandra Zaïnal
Original concept : Baudouin d'Aumeries
Technical & hardware support : Manuel Goepfert
Assistance : Marc-Olivier Méhu




SOURCES & CREDITS :

   NOAA